Time;durP1;ratioP1;P1;durP2;ratioP2;P2;SDS_P1;SDS_P2;PMS_P1;PMS_P2;Temp;Humidity;BMP_temperature;BMP_pressure;BME280_temperature;BME280_humidity;BME280_pressure;Samples;Min_cycle;Max_cycle;Signal;HPM_P1;HPM_P2
2022/04/29 00:00:44;;;;;;;7.20;4.47;;;7.80;99.90;;;;;;5057099;28;20221;-82
2022/04/29 00:03:14;;;;;;;12.90;4.40;;;7.70;99.90;;;;;;5057824;28;20205;-83
2022/04/29 00:05:43;;;;;;;11.83;5.43;;;7.70;99.90;;;;;;5057508;28;20202;-84
2022/04/29 00:08:11;;;;;;;11.60;4.00;;;7.70;99.90;;;;;;5056958;28;20193;-82
2022/04/29 00:10:38;;;;;;;13.00;4.10;;;7.70;99.90;;;;;;5057995;28;20198;-82
2022/04/29 00:13:07;;;;;;;8.27;4.00;;;7.70;99.90;;;;;;5046135;28;20225;-82
2022/04/29 00:15:34;;;;;;;5.90;3.60;;;7.70;99.90;;;;;;5037876;28;20203;-81
2022/04/29 00:18:01;;;;;;;6.10;3.87;;;7.70;99.90;;;;;;5037776;28;20203;-82
2022/04/29 00:20:29;;;;;;;7.87;3.90;;;7.70;99.90;;;;;;5046653;28;20241;-82
2022/04/29 00:22:56;;;;;;;7.43;4.03;;;7.80;99.90;;;;;;5046576;28;20213;-82
2022/04/29 00:25:23;;;;;;;11.27;4.43;;;7.80;99.90;;;;;;5048609;28;20198;-81
2022/04/29 00:27:50;;;;;;;7.63;4.20;;;7.70;99.90;;;;;;5043328;28;20206;-82
2022/04/29 00:30:16;;;;;;;14.37;4.50;;;7.70;99.90;;;;;;5037384;28;20210;-83
2022/04/29 00:32:43;;;;;;;9.27;4.30;;;7.80;99.90;;;;;;5037507;28;20520;-84
2022/04/29 00:35:11;;;;;;;5.90;3.90;;;7.80;99.90;;;;;;5042674;28;20198;-83
2022/04/29 00:37:46;;;;;;;8.90;4.80;;;7.80;99.90;;;;;;5057110;28;20206;-82
2022/04/29 00:40:15;;;;;;;8.23;3.87;;;7.80;99.90;;;;;;5052497;28;20222;-81
2022/04/29 00:42:43;;;;;;;10.40;4.57;;;7.70;99.90;;;;;;5045586;28;20637;-82
2022/04/29 00:45:10;;;;;;;11.47;4.87;;;7.70;99.90;;;;;;5057442;28;20204;-82
2022/04/29 00:47:37;;;;;;;8.83;5.00;;;7.70;99.90;;;;;;5056629;28;20209;-84
2022/04/29 00:50:05;;;;;;;5.77;3.83;;;7.70;99.90;;;;;;5056056;28;20537;-81
2022/04/29 00:52:33;;;;;;;5.47;4.13;;;7.70;99.90;;;;;;5057086;28;20202;-80
2022/04/29 00:55:05;;;;;;;7.03;4.13;;;7.70;99.90;;;;;;5056556;28;20229;-81
2022/04/29 00:57:40;;;;;;;6.90;4.03;;;7.80;99.90;;;;;;5056923;28;20213;-83
2022/04/29 01:00:09;;;;;;;8.87;3.80;;;7.80;99.90;;;;;;5049194;28;20237;-81
2022/04/29 01:02:39;;;;;;;7.00;3.93;;;7.90;99.90;;;;;;5036524;28;20191;-82
2022/04/29 01:05:08;;;;;;;7.83;4.30;;;7.90;99.90;;;;;;5056688;28;20599;-81
2022/04/29 01:07:36;;;;;;;11.50;4.63;;;7.90;99.90;;;;;;5056796;28;20202;-82
2022/04/29 01:10:06;;;;;;;14.50;4.37;;;7.90;99.90;;;;;;5043191;28;20265;-81
2022/04/29 01:12:35;;;;;;;8.43;4.07;;;7.90;99.90;;;;;;5036889;28;20503;-82
2022/04/29 01:15:05;;;;;;;11.47;4.40;;;7.90;99.90;;;;;;5036993;28;20712;-82
2022/04/29 01:17:34;;;;;;;10.30;4.57;;;7.90;99.90;;;;;;5036277;28;20199;-82
2022/04/29 01:20:02;;;;;;;9.90;4.03;;;7.90;99.90;;;;;;5036298;28;20234;-81
2022/04/29 01:22:31;;;;;;;7.33;4.13;;;7.90;99.90;;;;;;5036713;28;20190;-83
2022/04/29 01:24:58;;;;;;;9.77;3.80;;;7.80;99.90;;;;;;5036709;28;20199;-82
2022/04/29 01:27:25;;;;;;;6.83;3.80;;;7.90;99.90;;;;;;5042718;28;20233;-82
2022/04/29 01:29:58;;;;;;;6.50;4.10;;;7.90;99.90;;;;;;5056463;28;20190;-82
2022/04/29 01:32:27;;;;;;;7.93;3.83;;;7.90;99.90;;;;;;5056430;28;20237;-82
2022/04/29 01:34:54;;;;;;;8.30;4.03;;;8.00;99.90;;;;;;5052959;28;20260;-84
2022/04/29 01:37:20;;;;;;;7.97;3.93;;;8.00;99.90;;;;;;5036065;28;20201;-83
2022/04/29 01:39:49;;;;;;;15.27;4.30;;;8.00;99.90;;;;;;5036372;28;20232;-84
2022/04/29 01:42:15;;;;;;;9.27;4.50;;;8.00;99.90;;;;;;5036800;28;20202;-84
2022/04/29 01:44:42;;;;;;;9.83;3.90;;;7.90;99.90;;;;;;5035775;28;20187;-82
2022/04/29 01:47:09;;;;;;;6.73;3.70;;;8.00;99.90;;;;;;5036185;28;20191;-83
2022/04/29 01:49:36;;;;;;;8.00;4.33;;;8.00;99.90;;;;;;5036261;28;20202;-83
2022/04/29 01:52:03;;;;;;;7.20;3.63;;;8.00;99.90;;;;;;5049774;28;20601;-83
2022/04/29 01:54:29;;;;;;;9.33;3.90;;;8.00;99.90;;;;;;5055733;28;20489;-84
2022/04/29 01:56:58;;;;;;;8.20;4.03;;;8.00;99.90;;;;;;5056142;28;20205;-83
2022/04/29 01:59:25;;;;;;;7.87;3.83;;;8.00;99.90;;;;;;5051173;28;20577;-82
2022/04/29 02:01:52;;;;;;;8.70;4.60;;;8.00;99.90;;;;;;5036083;28;20198;-82
2022/04/29 02:04:18;;;;;;;12.50;5.00;;;8.00;99.90;;;;;;5036441;28;20506;-83
2022/04/29 02:06:45;;;;;;;6.33;3.80;;;8.00;99.90;;;;;;5034902;28;20199;-82
2022/04/29 02:09:12;;;;;;;7.23;3.90;;;8.00;99.90;;;;;;5036476;28;20203;-83
2022/04/29 02:11:39;;;;;;;7.20;4.43;;;7.90;99.90;;;;;;5041566;28;20202;-81
2022/04/29 02:14:07;;;;;;;10.03;4.00;;;7.90;99.90;;;;;;5055946;28;20205;-84
2022/04/29 02:16:34;;;;;;;18.30;5.13;;;8.00;99.90;;;;;;5055567;28;20633;-82
2022/04/29 02:19:01;;;;;;;8.87;4.50;;;7.90;99.90;;;;;;5055253;28;20198;-82
2022/04/29 02:21:28;;;;;;;8.00;3.97;;;8.00;99.90;;;;;;5055268;28;20537;-83
2022/04/29 02:23:55;;;;;;;7.13;3.90;;;8.00;99.90;;;;;;5055913;28;20209;-83
2022/04/29 02:26:21;;;;;;;8.90;4.23;;;8.00;99.90;;;;;;5055570;28;20586;-82
2022/04/29 02:28:48;;;;;;;11.40;3.90;;;7.90;99.90;;;;;;5054545;28;20201;-83
2022/04/29 02:31:16;;;;;;;8.33;3.93;;;8.00;99.90;;;;;;5055136;28;20229;-83
2022/04/29 02:33:43;;;;;;;5.33;4.13;;;8.00;99.90;;;;;;5054197;28;20202;-84
2022/04/29 02:36:10;;;;;;;8.70;4.20;;;7.90;99.90;;;;;;5056692;28;20202;-82
2022/04/29 02:38:36;;;;;;;10.00;4.43;;;8.00;99.90;;;;;;5054357;28;20202;-82
2022/04/29 02:41:03;;;;;;;9.73;4.10;;;8.00;99.90;;;;;;5055012;28;20232;-84
2022/04/29 02:43:30;;;;;;;8.93;4.50;;;8.00;99.90;;;;;;5055425;28;20198;-82
2022/04/29 02:45:57;;;;;;;11.57;4.33;;;8.00;99.90;;;;;;5055639;28;20201;-84
2022/04/29 02:48:25;;;;;;;10.40;3.93;;;8.00;99.90;;;;;;5054029;28;20198;-82
2022/04/29 02:50:52;;;;;;;5.50;4.00;;;8.00;99.90;;;;;;5055508;28;20212;-84
2022/04/29 02:53:19;;;;;;;8.43;4.00;;;8.00;99.90;;;;;;5055212;28;20582;-81
2022/04/29 02:55:46;;;;;;;8.07;4.13;;;7.90;99.90;;;;;;5054889;28;20199;-82
2022/04/29 02:58:13;;;;;;;8.60;4.13;;;7.90;99.90;;;;;;5054551;28;20202;-82
2022/04/29 03:00:40;;;;;;;8.37;4.20;;;7.90;99.90;;;;;;5054937;28;20853;-83
2022/04/29 03:03:08;;;;;;;6.57;4.03;;;7.90;99.90;;;;;;5054763;28;20235;-82
2022/04/29 03:05:36;;;;;;;11.77;4.20;;;7.90;99.90;;;;;;5055081;28;20205;-82
2022/04/29 03:08:03;;;;;;;8.10;4.37;;;7.90;99.90;;;;;;5041099;28;20210;-82
2022/04/29 03:10:29;;;;;;;10.60;4.10;;;7.90;99.90;;;;;;5035341;28;20206;-82
2022/04/29 03:12:56;;;;;;;8.00;4.47;;;7.90;99.90;;;;;;5040950;28;20590;-82
2022/04/29 03:15:25;;;;;;;5.40;3.60;;;7.90;99.90;;;;;;5054481;28;20273;-82
2022/04/29 03:20:40;;;;;;;7.90;3.77;;;7.90;99.90;;;;;;5057905;28;20328;-82
2022/04/29 03:23:08;;;;;;;7.03;4.20;;;7.90;99.90;;;;;;5058528;28;20197;-82
2022/04/29 03:25:35;;;;;;;11.17;4.10;;;8.00;99.90;;;;;;5059085;28;20213;-83
2022/04/29 03:28:03;;;;;;;5.87;4.17;;;8.00;99.90;;;;;;5058268;28;20198;-83
2022/04/29 03:30:29;;;;;;;9.00;4.13;;;8.00;99.90;;;;;;5038354;28;20199;-83
2022/04/29 03:32:58;;;;;;;8.13;3.50;;;8.00;99.90;;;;;;5038935;28;20241;-84
2022/04/29 03:35:26;;;;;;;9.53;4.20;;;7.90;99.90;;;;;;5039307;28;20190;-83
2022/04/29 03:37:54;;;;;;;8.40;4.67;;;8.00;99.90;;;;;;5042591;28;20206;-83
2022/04/29 03:40:22;;;;;;;6.30;4.17;;;8.00;99.90;;;;;;5058103;28;20225;-81
2022/04/29 03:42:50;;;;;;;9.00;4.23;;;8.00;99.90;;;;;;5058714;28;20209;-82
2022/04/29 03:45:17;;;;;;;7.97;4.63;;;8.00;99.90;;;;;;5045137;28;20203;-83
2022/04/29 03:47:44;;;;;;;9.97;3.70;;;8.00;99.90;;;;;;5038730;28;20210;-83
2022/04/29 03:50:11;;;;;;;10.23;3.97;;;8.00;99.90;;;;;;5038005;28;20206;-82
2022/04/29 03:52:46;;;;;;;7.93;4.20;;;7.90;99.90;;;;;;5038814;28;20206;-82
2022/04/29 03:55:15;;;;;;;9.87;4.17;;;7.90;99.90;;;;;;5056894;28;20236;-82
2022/04/29 03:57:42;;;;;;;7.70;4.33;;;7.90;99.90;;;;;;5057722;28;20210;-83
2022/04/29 04:00:11;;;;;;;9.37;4.00;;;7.90;99.90;;;;;;5058272;28;20614;-82
2022/04/29 04:02:38;;;;;;;9.80;4.00;;;7.90;99.90;;;;;;5055290;28;20214;-84
2022/04/29 04:05:06;;;;;;;8.53;3.97;;;7.80;99.90;;;;;;5038092;28;20601;-82
2022/04/29 04:07:33;;;;;;;6.90;4.13;;;7.80;99.90;;;;;;5043665;28;20202;-82
2022/04/29 04:10:00;;;;;;;8.13;4.27;;;7.80;99.90;;;;;;5058819;28;20198;-83
2022/04/29 04:12:38;;;;;;;9.60;4.97;;;7.70;99.90;;;;;;5058111;28;20601;-82
2022/04/29 04:15:06;;;;;;;10.50;5.27;;;7.80;99.90;;;;;;5057608;28;20504;-82
2022/04/29 04:17:33;;;;;;;17.27;4.77;;;7.80;99.90;;;;;;5057247;28;20209;-84
2022/04/29 04:20:00;;;;;;;10.43;4.67;;;7.80;99.90;;;;;;5057538;28;20230;-83
2022/04/29 04:22:27;;;;;;;8.53;4.60;;;7.80;99.90;;;;;;5058067;28;20197;-83
2022/04/29 04:24:54;;;;;;;7.30;4.53;;;7.90;99.90;;;;;;5056817;28;20586;-82
2022/04/29 04:27:21;;;;;;;8.97;4.90;;;7.80;99.90;;;;;;5057582;28;20200;-84
2022/04/29 04:29:49;;;;;;;7.17;4.50;;;7.90;99.90;;;;;;5057690;28;20200;-83
2022/04/29 04:32:16;;;;;;;7.73;4.80;;;7.90;99.90;;;;;;5056707;28;20666;-83
2022/04/29 04:34:52;;;;;;;9.20;5.20;;;7.90;99.90;;;;;;5057313;28;20198;-84
2022/04/29 04:37:20;;;;;;;11.00;4.87;;;7.90;99.90;;;;;;5057083;28;20232;-82
2022/04/29 04:39:47;;;;;;;10.43;5.33;;;7.90;99.90;;;;;;5057048;28;20190;-83
2022/04/29 04:42:14;;;;;;;7.20;5.20;;;7.90;99.90;;;;;;5057103;28;20226;-82
2022/04/29 04:44:41;;;;;;;8.43;4.93;;;7.90;99.90;;;;;;5042825;28;20230;-84
2022/04/29 04:47:10;;;;;;;13.73;6.27;;;7.90;99.90;;;;;;5037086;28;20207;-82
2022/04/29 04:49:36;;;;;;;10.27;5.13;;;7.90;99.90;;;;;;5037724;28;20229;-82
2022/04/29 04:52:04;;;;;;;11.83;5.73;;;7.90;99.90;;;;;;5037187;28;20595;-82
2022/04/29 04:54:31;;;;;;;12.90;5.20;;;7.90;99.90;;;;;;5056409;28;20249;-83
2022/04/29 04:56:58;;;;;;;12.00;5.67;;;8.00;99.90;;;;;;5056489;28;20206;-84
2022/04/29 04:59:25;;;;;;;8.23;5.00;;;8.00;99.90;;;;;;5056974;28;20186;-82
2022/04/29 05:01:51;;;;;;;11.43;5.90;;;8.00;99.90;;;;;;5056302;28;20218;-83
2022/04/29 05:04:20;;;;;;;12.53;5.90;;;8.00;99.90;;;;;;5056589;28;20202;-83
2022/04/29 05:06:47;;;;;;;8.50;5.37;;;8.00;99.90;;;;;;5042678;28;20217;-82
2022/04/29 05:09:14;;;;;;;11.07;5.87;;;8.10;99.90;;;;;;5036465;28;20206;-82
2022/04/29 05:11:40;;;;;;;7.60;5.07;;;8.10;99.90;;;;;;5037141;28;20280;-82
2022/04/29 05:14:07;;;;;;;10.63;5.33;;;8.10;99.90;;;;;;5048564;28;20233;-82
2022/04/29 05:16:34;;;;;;;12.17;5.30;;;8.10;99.90;;;;;;5056991;28;20610;-84
2022/04/29 05:19:01;;;;;;;10.33;5.97;;;8.10;99.90;;;;;;5057516;28;20198;-83
2022/04/29 05:21:29;;;;;;;9.80;5.43;;;8.10;99.90;;;;;;5056008;28;20320;-82
2022/04/29 05:23:56;;;;;;;10.30;5.50;;;8.20;99.90;;;;;;5056467;28;20209;-82
2022/04/29 05:26:23;;;;;;;13.27;5.37;;;8.30;99.90;;;;;;5056463;28;20206;-82
2022/04/29 05:28:49;;;;;;;9.97;4.87;;;8.30;99.90;;;;;;5055226;28;20617;-83
2022/04/29 05:31:16;;;;;;;8.50;4.80;;;8.40;99.90;;;;;;5057029;28;20618;-82
2022/04/29 05:33:44;;;;;;;6.83;4.60;;;8.40;99.90;;;;;;5042103;28;20206;-84
2022/04/29 05:36:11;;;;;;;10.87;4.70;;;8.40;99.90;;;;;;5036148;28;20237;-83
2022/04/29 05:44:09;;;;;;;9.10;4.67;;;8.50;99.90;;;;;;5056014;28;20616;-83
2022/04/29 05:46:36;;;;;;;6.20;4.43;;;8.50;99.90;;;;;;5055516;28;20633;-83
2022/04/29 05:49:03;;;;;;;8.60;4.57;;;8.60;99.90;;;;;;5056509;28;20190;-84
2022/04/29 05:51:30;;;;;;;6.57;4.37;;;8.60;99.90;;;;;;5055819;28;20201;-84
2022/04/29 05:54:00;;;;;;;9.40;4.63;;;8.60;99.90;;;;;;5053908;28;20585;-85
2022/04/29 05:56:27;;;;;;;10.80;5.30;;;8.70;99.90;;;;;;5036135;28;20208;-84
2022/04/29 05:58:54;;;;;;;9.20;4.37;;;8.70;99.90;;;;;;5035523;28;20205;-85
2022/04/29 06:01:20;;;;;;;9.77;4.57;;;8.70;99.90;;;;;;5035796;28;20230;-82
2022/04/29 06:03:47;;;;;;;9.23;4.43;;;8.80;99.90;;;;;;5035582;28;20441;-84
2022/04/29 06:06:14;;;;;;;10.33;4.90;;;8.80;99.90;;;;;;5055669;28;20222;-83
2022/04/29 06:08:41;;;;;;;11.70;4.83;;;8.90;99.90;;;;;;5055019;28;20533;-84
2022/04/29 06:11:09;;;;;;;11.10;4.90;;;9.00;99.90;;;;;;5038236;28;20260;-82
2022/04/29 06:13:37;;;;;;;11.97;6.60;;;9.10;99.90;;;;;;5042530;28;20198;-85
2022/04/29 06:16:05;;;;;;;7.93;5.67;;;9.10;99.90;;;;;;5045512;28;20220;-82
2022/04/29 06:18:33;;;;;;;8.93;4.67;;;9.30;99.90;;;;;;5039712;28;20207;-83
2022/04/29 06:21:00;;;;;;;7.67;4.70;;;9.30;99.90;;;;;;5044067;28;20242;-84
2022/04/29 06:23:26;;;;;;;5.83;4.83;;;9.40;99.90;;;;;;5038161;28;20199;-84
2022/04/29 06:25:54;;;;;;;11.43;5.77;;;9.40;99.90;;;;;;5043275;28;20205;-84
2022/04/29 06:28:22;;;;;;;9.43;5.13;;;9.40;99.90;;;;;;5045253;28;20205;-84
2022/04/29 06:30:48;;;;;;;10.37;5.27;;;9.40;99.90;;;;;;5035453;28;20487;-84
2022/04/29 06:33:16;;;;;;;9.07;5.60;;;9.50;99.90;;;;;;5045015;28;20206;-85
2022/04/29 06:35:42;;;;;;;10.73;5.17;;;9.50;99.90;;;;;;5055341;28;20284;-83
2022/04/29 06:38:09;;;;;;;7.57;5.37;;;9.60;99.90;;;;;;5054371;28;21824;-85
2022/04/29 06:40:36;;;;;;;10.60;4.67;;;9.60;99.90;;;;;;5053259;28;20638;-84
2022/04/29 06:43:03;;;;;;;10.17;4.40;;;9.60;99.90;;;;;;5055998;28;20202;-85
2022/04/29 06:45:31;;;;;;;10.60;4.67;;;9.70;99.90;;;;;;5055203;28;20208;-86
2022/04/29 06:47:58;;;;;;;8.87;5.60;;;9.80;99.90;;;;;;5097014;23;20255;-84
2022/04/29 06:50:25;;;;;;;9.50;4.63;;;9.80;99.90;;;;;;5086730;28;20611;-85
2022/04/29 06:52:52;;;;;;;6.70;5.07;;;9.80;99.90;;;;;;5078414;28;20506;-84
2022/04/29 06:55:18;;;;;;;6.30;5.13;;;9.90;99.90;;;;;;5079442;28;20197;-85
2022/04/29 06:57:46;;;;;;;7.07;4.50;;;9.90;99.90;;;;;;5079201;28;20201;-84
2022/04/29 07:00:15;;;;;;;7.57;5.13;;;10.00;99.90;;;;;;5078362;28;20197;-85
2022/04/29 07:02:43;;;;;;;9.37;4.83;;;10.00;99.90;;;;;;5079192;28;20308;-84
2022/04/29 07:05:10;;;;;;;7.63;4.23;;;10.00;99.90;;;;;;5079305;28;20197;-87
2022/04/29 07:07:37;;;;;;;7.77;4.53;;;10.00;99.90;;;;;;5095917;28;20508;-86
2022/04/29 07:10:04;;;;;;;7.13;3.90;;;10.00;99.90;;;;;;5099573;28;20204;-84
2022/04/29 07:12:33;;;;;;;8.37;5.80;;;10.10;99.90;;;;;;5089399;28;20536;-82
2022/04/29 07:15:00;;;;;;;8.43;4.93;;;10.00;99.90;;;;;;5078634;28;20205;-85
2022/04/29 07:17:27;;;;;;;7.60;4.60;;;9.90;99.90;;;;;;5079280;28;20205;-85
2022/04/29 07:19:55;;;;;;;8.27;4.60;;;9.90;99.90;;;;;;5078821;28;20201;-85
2022/04/29 07:22:23;;;;;;;10.10;4.93;;;9.90;99.90;;;;;;5078247;28;20538;-84
2022/04/29 07:24:50;;;;;;;9.17;4.93;;;9.90;99.90;;;;;;5078575;28;20194;-82
2022/04/29 07:27:17;;;;;;;7.73;4.40;;;9.90;99.90;;;;;;5079046;28;20209;-84
2022/04/29 07:29:44;;;;;;;11.63;4.60;;;10.00;99.90;;;;;;5078328;28;20209;-84
2022/04/29 07:32:11;;;;;;;8.77;4.70;;;10.10;99.90;;;;;;5079112;28;20232;-84
2022/04/29 07:42:52;;;;;;;8.30;4.30;;;10.30;99.90;;;;;;5078319;28;20685;-87
2022/04/29 07:45:19;;;;;;;6.47;3.30;;;10.30;99.90;;;;;;5078644;28;20197;-84
2022/04/29 07:47:46;;;;;;;8.47;4.20;;;10.20;99.90;;;;;;5078418;28;20233;-83
2022/04/29 07:50:13;;;;;;;7.03;3.60;;;10.10;99.90;;;;;;5077769;28;20208;-83
2022/04/29 07:52:41;;;;;;;7.57;4.03;;;10.20;99.90;;;;;;5078224;28;20252;-83
2022/04/29 07:55:09;;;;;;;7.53;3.57;;;10.30;99.90;;;;;;5077706;28;20202;-83
2022/04/29 07:57:36;;;;;;;5.53;3.93;;;10.20;99.90;;;;;;5078175;28;20201;-84
2022/04/29 08:00:04;;;;;;;7.37;4.20;;;10.30;99.90;;;;;;5077992;28;20205;-83
2022/04/29 08:02:31;;;;;;;10.80;5.10;;;10.20;99.90;;;;;;5078100;28;20682;-84
2022/04/29 08:04:58;;;;;;;5.63;3.43;;;10.30;99.90;;;;;;5060198;28;20216;-84
2022/04/29 08:07:25;;;;;;;3.67;3.30;;;10.30;99.90;;;;;;5058417;28;20574;-85
2022/04/29 08:09:53;;;;;;;6.40;3.60;;;10.40;99.90;;;;;;5057972;28;20617;-83
2022/04/29 08:12:21;;;;;;;5.67;3.10;;;10.40;99.90;;;;;;5057804;28;20616;-82
2022/04/29 08:14:48;;;;;;;6.17;4.07;;;10.40;99.90;;;;;;5057465;28;20586;-82
2022/04/29 08:17:14;;;;;;;7.47;3.43;;;10.50;99.90;;;;;;5058161;28;20198;-84
2022/04/29 08:19:41;;;;;;;8.73;3.70;;;10.60;99.90;;;;;;5067672;28;20205;-83
2022/04/29 08:22:08;;;;;;;7.43;3.63;;;10.60;99.90;;;;;;5077214;28;20221;-83
2022/04/29 08:24:35;;;;;;;4.53;3.80;;;10.70;99.90;;;;;;5077122;28;20208;-82
2022/04/29 08:27:03;;;;;;;6.70;3.77;;;10.60;99.90;;;;;;5077594;28;20202;-83
2022/04/29 08:29:30;;;;;;;7.73;3.73;;;10.70;99.90;;;;;;5077358;28;20201;-85
2022/04/29 08:31:57;;;;;;;9.17;3.80;;;10.80;99.90;;;;;;5077187;28;20228;-83
2022/04/29 08:34:25;;;;;;;9.03;3.97;;;10.80;99.90;;;;;;5077465;28;20220;-82
2022/04/29 08:36:52;;;;;;;8.87;4.37;;;10.70;99.90;;;;;;5077126;28;20233;-84
2022/04/29 08:39:18;;;;;;;6.63;3.43;;;10.70;99.90;;;;;;5077087;28;20205;-82
2022/04/29 08:41:45;;;;;;;6.87;3.63;;;10.60;99.90;;;;;;5077194;28;20493;-82
2022/04/29 08:44:16;;;;;;;8.87;4.03;;;10.70;99.90;;;;;;5077058;28;20199;-81
2022/04/29 08:46:44;;;;;;;5.30;3.43;;;10.70;99.90;;;;;;5076702;28;20233;-83
2022/04/29 08:49:11;;;;;;;6.67;3.90;;;10.80;99.90;;;;;;5077534;28;20292;-83
2022/04/29 08:51:39;;;;;;;5.03;3.40;;;10.80;99.90;;;;;;5076841;28;20251;-84
2022/04/29 08:54:06;;;;;;;6.40;3.20;;;10.80;99.90;;;;;;5076896;28;20332;-81
2022/04/29 08:59:20;;;;;;;10.90;3.80;;;10.90;99.90;;;;;;5076279;28;20196;-83
2022/04/29 09:01:47;;;;;;;6.83;3.50;;;10.90;99.90;;;;;;5076514;28;20221;-84
2022/04/29 09:04:14;;;;;;;7.07;3.00;;;10.90;99.90;;;;;;5077024;28;20193;-84
2022/04/29 09:06:48;;;;;;;7.40;3.80;;;10.80;99.90;;;;;;5076729;28;20202;-84
2022/04/29 09:09:15;;;;;;;4.93;3.37;;;10.90;99.90;;;;;;5076438;28;20748;-83
2022/04/29 09:11:42;;;;;;;7.63;3.90;;;10.80;99.90;;;;;;5074744;28;20196;-85
2022/04/29 09:14:24;;;;;;;7.47;4.00;;;10.90;99.90;;;;;;5076224;28;20197;-84
2022/04/29 09:16:51;;;;;;;7.13;4.20;;;10.90;99.90;;;;;;5075792;28;20205;-81
2022/04/29 09:19:31;;;;;;;6.80;3.73;;;10.80;99.90;;;;;;5076015;28;20288;-86
2022/04/29 09:22:07;;;;;;;7.03;3.67;;;10.90;99.90;;;;;;5074273;28;20228;-81
2022/04/29 09:24:34;;;;;;;5.97;3.80;;;10.80;99.90;;;;;;5076167;28;20283;-83
2022/04/29 09:27:01;;;;;;;8.37;3.43;;;10.80;99.90;;;;;;5076220;28;20208;-82
2022/04/29 09:29:30;;;;;;;5.60;3.40;;;10.80;99.90;;;;;;5073148;28;20201;-83
2022/04/29 09:31:59;;;;;;;7.20;4.57;;;10.90;99.90;;;;;;5056288;28;20213;-83
2022/04/29 09:34:44;;;;;;;6.30;3.03;;;10.80;99.90;;;;;;5063281;28;20201;-82
2022/04/29 09:37:15;;;;;;;7.20;3.40;;;10.90;99.90;;;;;;5076004;28;20304;-82
2022/04/29 09:39:50;;;;;;;6.90;3.20;;;11.10;99.90;;;;;;5061986;28;20202;-83
2022/04/29 09:42:17;;;;;;;5.23;3.73;;;11.30;99.90;;;;;;5057054;28;20217;-88
2022/04/29 09:44:45;;;;;;;4.07;3.20;;;11.40;99.90;;;;;;5076176;28;20209;-84
2022/04/29 09:47:13;;;;;;;9.50;3.60;;;11.40;99.90;;;;;;5076012;28;20229;-86
2022/04/29 09:49:41;;;;;;;8.10;3.70;;;11.50;99.90;;;;;;5076778;28;20513;-83
2022/04/29 09:52:08;;;;;;;5.23;3.30;;;11.70;99.90;;;;;;5076228;28;20216;-83
2022/04/29 09:54:37;;;;;;;6.27;3.27;;;11.70;99.90;;;;;;5076860;28;20195;-83
2022/04/29 09:57:09;;;;;;;6.80;3.70;;;11.70;99.90;;;;;;5076562;28;20607;-81
2022/04/29 09:59:38;;;;;;;5.57;3.13;;;11.80;99.90;;;;;;5054949;28;20220;-81
2022/04/29 10:02:07;;;;;;;4.00;3.50;;;11.80;99.90;;;;;;5074716;28;20225;-82
2022/04/29 10:04:35;;;;;;;7.50;3.60;;;11.80;99.90;;;;;;5074814;28;20268;-84
2022/04/29 10:07:05;;;;;;;6.00;3.40;;;11.80;99.90;;;;;;5072944;28;20217;-81
2022/04/29 10:09:34;;;;;;;7.70;4.17;;;11.70;99.90;;;;;;5073828;28;20296;-83
2022/04/29 10:12:03;;;;;;;6.03;3.60;;;11.70;99.90;;;;;;5066754;28;20267;-84
2022/04/29 10:14:37;;;;;;;3.83;3.30;;;11.80;99.90;;;;;;5070226;28;20622;-82
2022/04/29 10:22:43;;;;;;;5.40;3.70;;;11.90;99.90;;;;;;5072353;28;20309;-81
2022/04/29 10:25:12;;;;;;;4.53;3.33;;;11.80;99.90;;;;;;5071772;28;20211;-83
2022/04/29 10:27:39;;;;;;;5.40;3.50;;;11.80;99.90;;;;;;5070560;28;20217;-83
2022/04/29 10:30:08;;;;;;;6.90;3.90;;;11.90;99.90;;;;;;5072419;28;20206;-82
2022/04/29 10:33:01;;;;;;;6.10;4.63;;;11.80;99.90;;;;;;5070759;28;20240;-85
2022/04/29 10:36:06;;;;;;;8.00;4.20;;;11.70;99.90;;;;;;5071116;28;20617;-81
2022/04/29 10:38:35;;;;;;;7.67;4.37;;;11.90;99.90;;;;;;5068964;28;20375;-82
2022/04/29 10:41:15;;;;;;;5.03;4.53;;;12.00;99.90;;;;;;5071665;28;20270;-81
2022/04/29 10:43:46;;;;;;;10.43;4.53;;;12.00;99.90;;;;;;5072332;28;20311;-82
2022/04/29 10:46:21;;;;;;;6.07;4.00;;;11.90;99.90;;;;;;5071614;28;20324;-84
2022/04/29 10:48:52;;;;;;;7.03;4.00;;;11.80;99.90;;;;;;5064470;28;20295;-82
2022/04/29 10:51:20;;;;;;;6.63;4.17;;;11.90;99.90;;;;;;5071693;28;20635;-84
2022/04/29 10:53:50;;;;;;;5.43;4.37;;;12.00;99.90;;;;;;5067820;28;20205;-82
2022/04/29 10:56:44;;;;;;;5.97;3.77;;;12.10;99.90;;;;;;5070926;28;20214;-81
2022/04/29 10:59:18;;;;;;;5.30;4.23;;;12.20;99.90;;;;;;5032614;28;20266;-81
2022/04/29 11:01:50;;;;;;;4.83;4.00;;;12.20;99.90;;;;;;5072433;28;20212;-83
2022/04/29 11:04:45;;;;;;;4.97;4.27;;;12.30;99.90;;;;;;5070687;28;20232;-83
2022/04/29 11:07:36;;;;;;;4.77;4.17;;;12.20;99.90;;;;;;5068704;28;20217;-84
2022/04/29 11:10:04;;;;;;;5.77;4.00;;;12.30;99.90;;;;;;5068771;28;20201;-81
2022/04/29 11:12:40;;;;;;;7.77;4.30;;;12.30;99.90;;;;;;5071629;28;20210;-85
2022/04/29 11:15:15;;;;;;;8.17;5.07;;;12.30;99.90;;;;;;5071915;28;20621;-85
2022/04/29 11:17:42;;;;;;;6.17;4.03;;;12.30;99.90;;;;;;5071551;28;20215;-83
2022/04/29 11:20:19;;;;;;;13.00;4.70;;;12.30;99.90;;;;;;5070706;28;20690;-82
2022/04/29 11:25:53;;;;;;;11.60;4.73;;;12.30;99.90;;;;;;5069160;28;20212;-84
2022/04/29 11:28:21;;;;;;;5.43;4.57;;;12.20;99.90;;;;;;5069001;28;20213;-82
2022/04/29 11:30:49;;;;;;;5.53;4.20;;;12.10;99.90;;;;;;5070266;28;20225;-83
2022/04/29 11:33:27;;;;;;;6.70;4.50;;;12.00;99.90;;;;;;5071489;28;20603;-82
2022/04/29 11:36:05;;;;;;;5.50;4.37;;;12.10;99.90;;;;;;5070154;28;20284;-83
2022/04/29 11:38:32;;;;;;;7.80;4.37;;;12.00;99.90;;;;;;5071992;28;20212;-83
2022/04/29 11:41:02;;;;;;;5.23;3.67;;;12.20;99.90;;;;;;5072621;28;20223;-83
2022/04/29 11:43:30;;;;;;;6.97;3.77;;;12.20;99.90;;;;;;5064384;28;20628;-81
2022/04/29 11:46:05;;;;;;;4.37;3.53;;;12.10;99.90;;;;;;5066103;28;20220;-80
2022/04/29 11:48:32;;;;;;;7.17;4.03;;;12.10;99.90;;;;;;5064356;28;20217;-82
2022/04/29 11:51:00;;;;;;;9.17;4.30;;;12.10;99.90;;;;;;5066958;28;20867;-82
2022/04/29 11:53:28;;;;;;;6.53;4.33;;;12.10;99.90;;;;;;5066642;28;20223;-81
2022/04/29 11:55:55;;;;;;;4.10;3.60;;;12.30;99.90;;;;;;5067080;28;20605;-84
2022/04/29 11:58:22;;;;;;;6.37;3.77;;;12.30;99.90;;;;;;5067972;28;20266;-83
2022/04/29 12:00:51;;;;;;;6.87;3.90;;;12.30;99.90;;;;;;5068374;28;20232;-83
2022/04/29 12:03:22;;;;;;;16.10;5.03;;;12.30;99.90;;;;;;5067046;28;20323;-82
2022/04/29 12:05:49;;;;;;;9.83;3.60;;;12.20;99.90;;;;;;5065810;28;20220;-80
2022/04/29 12:08:17;;;;;;;12.67;5.37;;;12.20;99.90;;;;;;5064535;28;20585;-81
2022/04/29 12:10:46;;;;;;;6.93;3.70;;;12.30;99.90;;;;;;5068471;28;20217;-82
2022/04/29 12:13:13;;;;;;;5.73;3.97;;;12.20;99.90;;;;;;5063776;28;20213;-87
2022/04/29 12:15:41;;;;;;;7.17;3.80;;;12.20;99.90;;;;;;5068511;28;20624;-81
2022/04/29 12:18:12;;;;;;;6.97;3.97;;;12.20;99.90;;;;;;5066562;28;20306;-81
2022/04/29 12:20:39;;;;;;;4.50;3.93;;;12.30;99.90;;;;;;5066340;28;20213;-80
2022/04/29 12:23:14;;;;;;;8.30;4.40;;;12.20;99.90;;;;;;5064997;28;20225;-82
2022/04/29 12:25:45;;;;;;;5.43;4.20;;;12.30;99.90;;;;;;5063680;28;20640;-82
2022/04/29 12:28:17;;;;;;;6.93;4.73;;;12.40;99.90;;;;;;5063257;28;20258;-83
2022/04/29 12:36:46;;;;;;;5.90;4.30;;;12.60;99.90;;;;;;5067122;28;20266;-83
2022/04/29 12:39:15;;;;;;;9.57;4.93;;;12.60;99.90;;;;;;5063137;28;20219;-82
2022/04/29 12:41:43;;;;;;;4.97;4.50;;;12.80;99.90;;;;;;5066678;28;20240;-82
2022/04/29 12:45:03;;;;;;;4.70;4.23;;;12.90;99.90;;;;;;5066373;28;20229;-82
2022/04/29 12:47:00;;;;;;;6.03;4.83;;;12.80;99.90;;;;;;5063941;28;20247;-79
2022/04/29 12:49:33;;;;;;;8.37;4.27;;;12.80;99.90;;;;;;5063349;28;20300;-83
2022/04/29 12:52:00;;;;;;;5.97;4.73;;;12.80;99.90;;;;;;5065639;28;20213;-81
2022/04/29 12:54:28;;;;;;;6.43;4.83;;;12.70;99.90;;;;;;5062471;28;20774;-81
2022/04/29 12:56:56;;;;;;;4.87;4.10;;;12.70;99.90;;;;;;5066986;28;20213;-80
2022/04/29 12:59:24;;;;;;;8.60;4.43;;;12.70;99.90;;;;;;5066626;28;20219;-84
2022/04/29 13:01:53;;;;;;;7.90;4.83;;;12.80;99.90;;;;;;5068461;28;20961;-81
2022/04/29 13:04:20;;;;;;;7.77;4.70;;;12.90;99.90;;;;;;5067599;28;20233;-79
2022/04/29 13:06:48;;;;;;;8.37;4.57;;;12.90;99.90;;;;;;5066444;28;20213;-82
2022/04/29 13:09:15;;;;;;;7.03;4.73;;;12.80;99.90;;;;;;5065048;28;20209;-80
2022/04/29 13:11:45;;;;;;;8.83;4.70;;;12.80;99.90;;;;;;5068009;28;20216;-83
2022/04/29 13:14:16;;;;;;;5.27;4.30;;;12.80;99.90;;;;;;5068600;28;20203;-82
2022/04/29 13:16:44;;;;;;;5.13;4.07;;;12.90;99.90;;;;;;5060921;28;20305;-80
2022/04/29 13:19:11;;;;;;;8.13;4.93;;;12.90;99.90;;;;;;5069140;28;20262;-82
2022/04/29 13:21:38;;;;;;;6.43;4.70;;;12.60;99.90;;;;;;5054999;28;20206;-83
2022/04/29 13:24:05;;;;;;;5.13;3.90;;;12.60;99.90;;;;;;5048662;28;20240;-81
2022/04/29 13:26:33;;;;;;;7.37;4.37;;;12.60;99.90;;;;;;5052425;28;20212;-86
2022/04/29 13:28:59;;;;;;;8.17;4.50;;;12.70;99.90;;;;;;5070316;28;20193;-84
2022/04/29 13:31:28;;;;;;;7.20;4.53;;;12.70;99.90;;;;;;5067979;28;20229;-79